sensor_id;sensor_type;location;lat;lon;timestamp;temperature;humidity
69546;SHT31;56766;52.260;20.746;2023-03-01T00:01:39;-2.53;81.91
69546;SHT31;56766;52.260;20.746;2023-03-01T00:04:06;-2.52;81.88
69546;SHT31;56766;52.260;20.746;2023-03-01T00:06:33;-2.52;81.84
69546;SHT31;56766;52.260;20.746;2023-03-01T00:09:00;-2.53;81.88
69546;SHT31;56766;52.260;20.746;2023-03-01T00:11:29;-2.53;81.84
69546;SHT31;56766;52.260;20.746;2023-03-01T00:13:59;-2.53;81.72
69546;SHT31;56766;52.260;20.746;2023-03-01T00:16:31;-2.55;81.70
69546;SHT31;56766;52.260;20.746;2023-03-01T00:19:08;-2.57;81.70
69546;SHT31;56766;52.260;20.746;2023-03-01T00:21:39;-2.59;81.72
69546;SHT31;56766;52.260;20.746;2023-03-01T00:24:07;-2.63;81.82
69546;SHT31;56766;52.260;20.746;2023-03-01T00:26:34;-2.66;81.98
69546;SHT31;56766;52.260;20.746;2023-03-01T00:29:01;-2.67;82.08
69546;SHT31;56766;52.260;20.746;2023-03-01T00:31:30;-2.66;81.98
69546;SHT31;56766;52.260;20.746;2023-03-01T00:34:01;-2.69;81.90
69546;SHT31;56766;52.260;20.746;2023-03-01T00:36:34;-2.72;81.96
69546;SHT31;56766;52.260;20.746;2023-03-01T00:39:07;-2.76;82.18
69546;SHT31;56766;52.260;20.746;2023-03-01T00:41:36;-2.76;82.25
69546;SHT31;56766;52.260;20.746;2023-03-01T00:44:03;-2.76;82.30
69546;SHT31;56766;52.260;20.746;2023-03-01T00:46:30;-2.77;82.30
69546;SHT31;56766;52.260;20.746;2023-03-01T00:48:57;-2.77;82.30
69546;SHT31;56766;52.260;20.746;2023-03-01T00:51:27;-2.78;82.32
69546;SHT31;56766;52.260;20.746;2023-03-01T00:53:57;-2.78;82.33
69546;SHT31;56766;52.260;20.746;2023-03-01T00:56:26;-2.79;82.34
69546;SHT31;56766;52.260;20.746;2023-03-01T00:58:53;-2.79;82.40
69546;SHT31;56766;52.260;20.746;2023-03-01T01:01:24;-2.78;82.34
69546;SHT31;56766;52.260;20.746;2023-03-01T01:04:00;-2.78;82.29
69546;SHT31;56766;52.260;20.746;2023-03-01T01:06:33;-2.79;82.28
69546;SHT31;56766;52.260;20.746;2023-03-01T01:09:04;-2.79;82.26
69546;SHT31;56766;52.260;20.746;2023-03-01T01:11:33;-2.80;82.29
69546;SHT31;56766;52.260;20.746;2023-03-01T01:14:02;-2.82;82.30
69546;SHT31;56766;52.260;20.746;2023-03-01T01:16:30;-2.82;82.20
69546;SHT31;56766;52.260;20.746;2023-03-01T01:18:57;-2.84;82.15
69546;SHT31;56766;52.260;20.746;2023-03-01T01:21:25;-2.86;82.19
69546;SHT31;56766;52.260;20.746;2023-03-01T01:23:55;-2.87;82.31
69546;SHT31;56766;52.260;20.746;2023-03-01T01:26:28;-2.88;82.48
69546;SHT31;56766;52.260;20.746;2023-03-01T01:28:56;-2.89;82.59
69546;SHT31;56766;52.260;20.746;2023-03-01T01:31:25;-2.89;82.50
69546;SHT31;56766;52.260;20.746;2023-03-01T01:33:53;-2.89;82.46
69546;SHT31;56766;52.260;20.746;2023-03-01T01:36:22;-2.89;82.43
69546;SHT31;56766;52.260;20.746;2023-03-01T01:38:49;-2.90;82.57
69546;SHT31;56766;52.260;20.746;2023-03-01T01:41:17;-2.90;82.60
69546;SHT31;56766;52.260;20.746;2023-03-01T01:43:47;-2.90;82.61
69546;SHT31;56766;52.260;20.746;2023-03-01T01:46:40;-2.90;82.70
69546;SHT31;56766;52.260;20.746;2023-03-01T01:52:33;-2.90;82.82
69546;SHT31;56766;52.260;20.746;2023-03-01T01:55:07;-2.90;82.89
69546;SHT31;56766;52.260;20.746;2023-03-01T01:57:52;-2.89;82.85
69546;SHT31;56766;52.260;20.746;2023-03-01T02:00:26;-2.88;82.80
69546;SHT31;56766;52.260;20.746;2023-03-01T02:02:58;-2.88;82.80
69546;SHT31;56766;52.260;20.746;2023-03-01T02:05:43;-2.87;82.77
69546;SHT31;56766;52.260;20.746;2023-03-01T02:08:15;-2.88;82.76
69546;SHT31;56766;52.260;20.746;2023-03-01T02:10:45;-2.86;82.80
69546;SHT31;56766;52.260;20.746;2023-03-01T02:13:15;-2.86;82.80
69546;SHT31;56766;52.260;20.746;2023-03-01T02:15:42;-2.86;82.78
69546;SHT31;56766;52.260;20.746;2023-03-01T02:18:12;-2.85;82.68
69546;SHT31;56766;52.260;20.746;2023-03-01T02:23:54;-2.89;82.75
69546;SHT31;56766;52.260;20.746;2023-03-01T02:27:03;-2.88;82.80
69546;SHT31;56766;52.260;20.746;2023-03-01T02:29:24;-2.89;82.82
69546;SHT31;56766;52.260;20.746;2023-03-01T02:31:56;-2.90;82.90
69546;SHT31;56766;52.260;20.746;2023-03-01T02:34:26;-2.91;82.83
69546;SHT31;56766;52.260;20.746;2023-03-01T02:37:07;-2.93;82.72
69546;SHT31;56766;52.260;20.746;2023-03-01T02:39:43;-2.98;82.72
69546;SHT31;56766;52.260;20.746;2023-03-01T02:42:23;-3.03;82.91
69546;SHT31;56766;52.260;20.746;2023-03-01T02:44:54;-3.03;83.02
69546;SHT31;56766;52.260;20.746;2023-03-01T02:47:21;-3.03;83.00
69546;SHT31;56766;52.260;20.746;2023-03-01T02:49:48;-3.04;83.04
69546;SHT31;56766;52.260;20.746;2023-03-01T02:55:08;-3.09;83.08
69546;SHT31;56766;52.260;20.746;2023-03-01T02:57:40;-3.10;83.30
69546;SHT31;56766;52.260;20.746;2023-03-01T03:00:16;-3.10;83.43
69546;SHT31;56766;52.260;20.746;2023-03-01T03:02:48;-3.08;83.51
69546;SHT31;56766;52.260;20.746;2023-03-01T03:05:29;-3.06;83.48
69546;SHT31;56766;52.260;20.746;2023-03-01T03:08:00;-3.03;83.34
69546;SHT31;56766;52.260;20.746;2023-03-01T03:10:35;-3.01;83.23
69546;SHT31;56766;52.260;20.746;2023-03-01T03:13:07;-3.00;83.10
69546;SHT31;56766;52.260;20.746;2023-03-01T03:15:36;-3.01;83.10
69546;SHT31;56766;52.260;20.746;2023-03-01T03:18:08;-3.02;83.18
69546;SHT31;56766;52.260;20.746;2023-03-01T03:20:40;-3.01;83.24
69546;SHT31;56766;52.260;20.746;2023-03-01T03:23:09;-3.01;83.21
69546;SHT31;56766;52.260;20.746;2023-03-01T03:25:35;-2.99;83.19
69546;SHT31;56766;52.260;20.746;2023-03-01T03:28:06;-2.98;83.09
69546;SHT31;56766;52.260;20.746;2023-03-01T03:30:39;-2.99;83.00
69546;SHT31;56766;52.260;20.746;2023-03-01T03:33:08;-2.99;83.13
69546;SHT31;56766;52.260;20.746;2023-03-01T03:35:48;-2.99;83.33
69546;SHT31;56766;52.260;20.746;2023-03-01T03:38:18;-2.98;83.40
69546;SHT31;56766;52.260;20.746;2023-03-01T03:40:51;-2.96;83.40
69546;SHT31;56766;52.260;20.746;2023-03-01T03:43:22;-2.93;83.40
69546;SHT31;56766;52.260;20.746;2023-03-01T03:45:51;-2.93;83.42
69546;SHT31;56766;52.260;20.746;2023-03-01T03:48:18;-2.92;83.46
69546;SHT31;56766;52.260;20.746;2023-03-01T03:50:54;-2.90;83.41
69546;SHT31;56766;52.260;20.746;2023-03-01T03:53:24;-2.88;83.40
69546;SHT31;56766;52.260;20.746;2023-03-01T03:55:53;-2.88;83.37
69546;SHT31;56766;52.260;20.746;2023-03-01T03:58:22;-2.87;83.23
69546;SHT31;56766;52.260;20.746;2023-03-01T04:00:53;-2.87;83.12
69546;SHT31;56766;52.260;20.746;2023-03-01T04:03:26;-2.87;83.10
69546;SHT31;56766;52.260;20.746;2023-03-01T04:05:54;-2.88;83.11
69546;SHT31;56766;52.260;20.746;2023-03-01T04:08:24;-2.88;83.22
69546;SHT31;56766;52.260;20.746;2023-03-01T04:10:58;-2.87;83.30
69546;SHT31;56766;52.260;20.746;2023-03-01T04:13:47;-2.87;83.30
69546;SHT31;56766;52.260;20.746;2023-03-01T04:16:14;-2.84;83.30
69546;SHT31;56766;52.260;20.746;2023-03-01T04:18:41;-2.82;83.26
69546;SHT31;56766;52.260;20.746;2023-03-01T04:21:08;-2.81;83.16
69546;SHT31;56766;52.260;20.746;2023-03-01T04:23:34;-2.79;83.11
69546;SHT31;56766;52.260;20.746;2023-03-01T04:26:02;-2.79;83.10
69546;SHT31;56766;52.260;20.746;2023-03-01T04:28:31;-2.79;83.14
69546;SHT31;56766;52.260;20.746;2023-03-01T04:31:08;-2.78;83.10
69546;SHT31;56766;52.260;20.746;2023-03-01T04:33:48;-2.77;83.11
69546;SHT31;56766;52.260;20.746;2023-03-01T04:36:22;-2.78;83.25
69546;SHT31;56766;52.260;20.746;2023-03-01T04:38:51;-2.75;83.18
69546;SHT31;56766;52.260;20.746;2023-03-01T04:41:20;-2.73;83.14
69546;SHT31;56766;52.260;20.746;2023-03-01T04:43:49;-2.71;83.20
69546;SHT31;56766;52.260;20.746;2023-03-01T04:46:19;-2.69;83.17
69546;SHT31;56766;52.260;20.746;2023-03-01T04:48:47;-2.68;83.20
69546;SHT31;56766;52.260;20.746;2023-03-01T04:51:16;-2.68;83.25
69546;SHT31;56766;52.260;20.746;2023-03-01T04:53:44;-2.68;83.38
69546;SHT31;56766;52.260;20.746;2023-03-01T04:56:11;-2.67;83.51
69546;SHT31;56766;52.260;20.746;2023-03-01T04:58:41;-2.66;83.60
69546;SHT31;56766;52.260;20.746;2023-03-01T05:01:16;-2.64;83.60
69546;SHT31;56766;52.260;20.746;2023-03-01T05:03:52;-2.63;83.60
69546;SHT31;56766;52.260;20.746;2023-03-01T05:06:20;-2.61;83.50
69546;SHT31;56766;52.260;20.746;2023-03-01T05:08:47;-2.61;83.50
69546;SHT31;56766;52.260;20.746;2023-03-01T05:11:14;-2.60;83.54
69546;SHT31;56766;52.260;20.746;2023-03-01T05:13:41;-2.59;83.55
69546;SHT31;56766;52.260;20.746;2023-03-01T05:16:10;-2.59;83.53
69546;SHT31;56766;52.260;20.746;2023-03-01T05:18:38;-2.59;83.57
69546;SHT31;56766;52.260;20.746;2023-03-01T05:21:08;-2.58;83.60
69546;SHT31;56766;52.260;20.746;2023-03-01T05:23:37;-2.57;83.54
69546;SHT31;56766;52.260;20.746;2023-03-01T05:26:06;-2.56;83.50
69546;SHT31;56766;52.260;20.746;2023-03-01T05:28:34;-2.57;83.49
69546;SHT31;56766;52.260;20.746;2023-03-01T05:31:01;-2.57;83.42
69546;SHT31;56766;52.260;20.746;2023-03-01T05:33:28;-2.56;83.41
69546;SHT31;56766;52.260;20.746;2023-03-01T05:35:59;-2.56;83.43
69546;SHT31;56766;52.260;20.746;2023-03-01T05:38:26;-2.55;83.50
69546;SHT31;56766;52.260;20.746;2023-03-01T05:40:53;-2.55;83.53
69546;SHT31;56766;52.260;20.746;2023-03-01T05:43:20;-2.53;83.50
69546;SHT31;56766;52.260;20.746;2023-03-01T05:45:47;-2.49;83.50
69546;SHT31;56766;52.260;20.746;2023-03-01T05:48:13;-2.44;83.50
69546;SHT31;56766;52.260;20.746;2023-03-01T05:50:44;-2.39;83.48
69546;SHT31;56766;52.260;20.746;2023-03-01T05:53:17;-2.35;83.40
69546;SHT31;56766;52.260;20.746;2023-03-01T05:55:48;-2.30;83.32
69546;SHT31;56766;52.260;20.746;2023-03-01T05:58:18;-2.26;83.30
69546;SHT31;56766;52.260;20.746;2023-03-01T06:00:47;-2.19;83.23
69546;SHT31;56766;52.260;20.746;2023-03-01T06:03:17;-2.12;83.13
69546;SHT31;56766;52.260;20.746;2023-03-01T06:05:44;-2.04;83.02
69546;SHT31;56766;52.260;20.746;2023-03-01T06:08:12;-1.97;82.95
69546;SHT31;56766;52.260;20.746;2023-03-01T06:10:39;-1.89;82.85
69546;SHT31;56766;52.260;20.746;2023-03-01T06:13:07;-1.82;82.80
69546;SHT31;56766;52.260;20.746;2023-03-01T06:15:34;-1.74;82.78
69546;SHT31;56766;52.260;20.746;2023-03-01T06:18:01;-1.65;82.70
69546;SHT31;56766;52.260;20.746;2023-03-01T06:20:28;-1.58;82.61
69546;SHT31;56766;52.260;20.746;2023-03-01T06:22:56;-1.50;82.60
69546;SHT31;56766;52.260;20.746;2023-03-01T06:25:25;-1.43;82.52
69546;SHT31;56766;52.260;20.746;2023-03-01T06:27:53;-1.36;82.50
69546;SHT31;56766;52.260;20.746;2023-03-01T06:30:22;-1.28;82.45
69546;SHT31;56766;52.260;20.746;2023-03-01T06:32:51;-1.20;82.40
69546;SHT31;56766;52.260;20.746;2023-03-01T06:35:19;-1.11;82.35
69546;SHT31;56766;52.260;20.746;2023-03-01T06:37:47;-1.03;82.23
69546;SHT31;56766;52.260;20.746;2023-03-01T06:40:15;-0.95;82.11
69546;SHT31;56766;52.260;20.746;2023-03-01T06:42:47;-0.86;82.01
69546;SHT31;56766;52.260;20.746;2023-03-01T06:45:17;-0.76;81.91
69546;SHT31;56766;52.260;20.746;2023-03-01T06:47:45;-0.68;81.90
69546;SHT31;56766;52.260;20.746;2023-03-01T06:50:13;-0.58;81.82
69546;SHT31;56766;52.260;20.746;2023-03-01T06:52:44;-0.50;81.79
69546;SHT31;56766;52.260;20.746;2023-03-01T06:55:12;-0.38;81.72
69546;SHT31;56766;52.260;20.746;2023-03-01T06:57:39;-0.29;81.66
69546;SHT31;56766;52.260;20.746;2023-03-01T07:00:07;-0.19;81.66
69546;SHT31;56766;52.260;20.746;2023-03-01T07:02:34;-0.08;81.60
69546;SHT31;56766;52.260;20.746;2023-03-01T07:05:01;0.03;81.50
69546;SHT31;56766;52.260;20.746;2023-03-01T07:07:28;0.15;81.38
69546;SHT31;56766;52.260;20.746;2023-03-01T07:09:54;0.30;81.23
69546;SHT31;56766;52.260;20.746;2023-03-01T07:12:21;0.43;81.10
69546;SHT31;56766;52.260;20.746;2023-03-01T07:14:48;0.53;80.97
69546;SHT31;56766;52.260;20.746;2023-03-01T07:17:14;0.59;80.64
69546;SHT31;56766;52.260;20.746;2023-03-01T07:19:41;0.69;80.55
69546;SHT31;56766;52.260;20.746;2023-03-01T07:22:08;0.80;80.30
69546;SHT31;56766;52.260;20.746;2023-03-01T07:24:35;0.91;80.30
69546;SHT31;56766;52.260;20.746;2023-03-01T07:27:02;1.06;80.17
69546;SHT31;56766;52.260;20.746;2023-03-01T07:29:29;1.23;80.05
69546;SHT31;56766;52.260;20.746;2023-03-01T07:31:56;1.36;79.80
69546;SHT31;56766;52.260;20.746;2023-03-01T07:34:23;1.47;79.61
69546;SHT31;56766;52.260;20.746;2023-03-01T07:36:50;1.57;79.50
69546;SHT31;56766;52.260;20.746;2023-03-01T07:39:16;1.72;79.45
69546;SHT31;56766;52.260;20.746;2023-03-01T07:41:43;1.86;79.10
69546;SHT31;56766;52.260;20.746;2023-03-01T07:44:09;1.97;78.94
69546;SHT31;56766;52.260;20.746;2023-03-01T07:46:37;2.11;78.84
69546;SHT31;56766;52.260;20.746;2023-03-01T07:49:03;2.27;78.49
69546;SHT31;56766;52.260;20.746;2023-03-01T07:51:31;2.42;78.45
69546;SHT31;56766;52.260;20.746;2023-03-01T07:53:57;2.61;77.98
69546;SHT31;56766;52.260;20.746;2023-03-01T07:56:24;2.74;77.70
69546;SHT31;56766;52.260;20.746;2023-03-01T07:58:51;2.88;77.34
69546;SHT31;56766;52.260;20.746;2023-03-01T08:01:19;3.05;76.92
69546;SHT31;56766;52.260;20.746;2023-03-01T08:03:48;3.21;76.38
69546;SHT31;56766;52.260;20.746;2023-03-01T08:06:16;3.37;76.09
69546;SHT31;56766;52.260;20.746;2023-03-01T08:08:44;3.58;76.02
69546;SHT31;56766;52.260;20.746;2023-03-01T08:11:13;3.79;75.76
69546;SHT31;56766;52.260;20.746;2023-03-01T08:13:42;4.00;75.40
69546;SHT31;56766;52.260;20.746;2023-03-01T08:16:12;4.22;75.01
69546;SHT31;56766;52.260;20.746;2023-03-01T08:18:42;4.46;74.41
69546;SHT31;56766;52.260;20.746;2023-03-01T08:21:12;4.69;74.16
69546;SHT31;56766;52.260;20.746;2023-03-01T08:23:41;4.90;73.80
69546;SHT31;56766;52.260;20.746;2023-03-01T08:26:12;5.17;73.73
69546;SHT31;56766;52.260;20.746;2023-03-01T08:28:42;5.41;73.46
69546;SHT31;56766;52.260;20.746;2023-03-01T08:31:14;5.62;73.06
69546;SHT31;56766;52.260;20.746;2023-03-01T08:33:52;5.78;72.71
69546;SHT31;56766;52.260;20.746;2023-03-01T08:36:26;5.96;72.67
69546;SHT31;56766;52.260;20.746;2023-03-01T08:38:58;6.10;72.37
69546;SHT31;56766;52.260;20.746;2023-03-01T08:41:26;6.20;71.51
69546;SHT31;56766;52.260;20.746;2023-03-01T08:43:53;6.30;71.69
69546;SHT31;56766;52.260;20.746;2023-03-01T08:46:30;6.38;71.27
69546;SHT31;56766;52.260;20.746;2023-03-01T08:49:07;6.45;70.96
69546;SHT31;56766;52.260;20.746;2023-03-01T08:51:38;6.51;70.61
69546;SHT31;56766;52.260;20.746;2023-03-01T08:54:09;6.66;70.61
69546;SHT31;56766;52.260;20.746;2023-03-01T08:56:37;6.85;70.30
69546;SHT31;56766;52.260;20.746;2023-03-01T08:59:04;7.02;69.92
69546;SHT31;56766;52.260;20.746;2023-03-01T09:01:31;7.10;68.23
69546;SHT31;56766;52.260;20.746;2023-03-01T09:03:58;7.10;68.23
69546;SHT31;56766;52.260;20.746;2023-03-01T09:06:25;7.11;67.39
69546;SHT31;56766;52.260;20.746;2023-03-01T09:08:52;7.12;65.89
69546;SHT31;56766;52.260;20.746;2023-03-01T09:11:22;7.05;66.45
69546;SHT31;56766;52.260;20.746;2023-03-01T09:13:49;7.12;66.16
69546;SHT31;56766;52.260;20.746;2023-03-01T09:16:19;7.05;65.76
69546;SHT31;56766;52.260;20.746;2023-03-01T09:18:53;7.14;66.46
69546;SHT31;56766;52.260;20.746;2023-03-01T09:21:23;7.18;64.78
69546;SHT31;56766;52.260;20.746;2023-03-01T09:23:50;7.11;64.00
69546;SHT31;56766;52.260;20.746;2023-03-01T09:26:20;7.09;64.76
69546;SHT31;56766;52.260;20.746;2023-03-01T09:28:51;7.16;65.58
69546;SHT31;56766;52.260;20.746;2023-03-01T09:31:21;7.22;65.98
69546;SHT31;56766;52.260;20.746;2023-03-01T09:33:52;7.14;65.09
69546;SHT31;56766;52.260;20.746;2023-03-01T09:36:23;6.97;64.62
69546;SHT31;56766;52.260;20.746;2023-03-01T09:38:52;6.83;64.65
69546;SHT31;56766;52.260;20.746;2023-03-01T09:41:26;6.77;65.19
69546;SHT31;56766;52.260;20.746;2023-03-01T09:45:03;6.77;65.65
69546;SHT31;56766;52.260;20.746;2023-03-01T09:47:16;6.78;66.10
69546;SHT31;56766;52.260;20.746;2023-03-01T09:50:11;6.78;66.06
69546;SHT31;56766;52.260;20.746;2023-03-01T09:52:55;6.74;65.53
69546;SHT31;56766;52.260;20.746;2023-03-01T09:56:11;6.80;66.10
69546;SHT31;56766;52.260;20.746;2023-03-01T10:04:50;7.16;66.15
69546;SHT31;56766;52.260;20.746;2023-03-01T10:09:59;7.32;65.82
69546;SHT31;56766;52.260;20.746;2023-03-01T10:12:34;7.41;66.17
69546;SHT31;56766;52.260;20.746;2023-03-01T10:15:19;7.50;65.96
69546;SHT31;56766;52.260;20.746;2023-03-01T10:18:05;7.57;65.99
69546;SHT31;56766;52.260;20.746;2023-03-01T10:21:01;7.63;65.74
69546;SHT31;56766;52.260;20.746;2023-03-01T10:23:43;7.66;65.84
69546;SHT31;56766;52.260;20.746;2023-03-01T10:27:03;7.74;65.56
69546;SHT31;56766;52.260;20.746;2023-03-01T10:29:30;7.72;64.54
69546;SHT31;56766;52.260;20.746;2023-03-01T10:32:05;7.71;64.40
69546;SHT31;56766;52.260;20.746;2023-03-01T10:34:34;7.69;64.66
69546;SHT31;56766;52.260;20.746;2023-03-01T10:37:14;7.72;64.38
69546;SHT31;56766;52.260;20.746;2023-03-01T10:40:08;7.79;64.38
69546;SHT31;56766;52.260;20.746;2023-03-01T10:42:58;7.88;64.76
69546;SHT31;56766;52.260;20.746;2023-03-01T10:48:17;8.06;65.07
69546;SHT31;56766;52.260;20.746;2023-03-01T10:53:34;8.15;64.84
69546;SHT31;56766;52.260;20.746;2023-03-01T10:56:07;8.12;63.64
69546;SHT31;56766;52.260;20.746;2023-03-01T10:58:37;8.13;64.14
69546;SHT31;56766;52.260;20.746;2023-03-01T11:01:25;8.16;64.68
69546;SHT31;56766;52.260;20.746;2023-03-01T11:06:38;8.28;64.66
69546;SHT31;56766;52.260;20.746;2023-03-01T11:11:40;8.36;64.14
69546;SHT31;56766;52.260;20.746;2023-03-01T11:14:16;8.39;63.96
69546;SHT31;56766;52.260;20.746;2023-03-01T11:16:48;8.47;64.35
69546;SHT31;56766;52.260;20.746;2023-03-01T11:19:26;8.53;63.43
69546;SHT31;56766;52.260;20.746;2023-03-01T11:24:47;8.68;63.46
69546;SHT31;56766;52.260;20.746;2023-03-01T11:27:33;8.78;63.71
69546;SHT31;56766;52.260;20.746;2023-03-01T11:30:24;8.86;63.47
69546;SHT31;56766;52.260;20.746;2023-03-01T11:36:12;8.88;63.29
69546;SHT31;56766;52.260;20.746;2023-03-01T11:38:50;8.90;63.55
69546;SHT31;56766;52.260;20.746;2023-03-01T11:41:21;8.91;63.45
69546;SHT31;56766;52.260;20.746;2023-03-01T11:43:59;8.86;63.22
69546;SHT31;56766;52.260;20.746;2023-03-01T12:01:23;8.89;63.79
69546;SHT31;56766;52.260;20.746;2023-03-01T12:07:14;9.02;64.04
69546;SHT31;56766;52.260;20.746;2023-03-01T12:19:33;9.19;63.37
69546;SHT31;56766;52.260;20.746;2023-03-01T12:25:37;9.20;63.67
69546;SHT31;56766;52.260;20.746;2023-03-01T12:35:16;9.23;62.00
69546;SHT31;56766;52.260;20.746;2023-03-01T12:37:54;9.12;62.07
69546;SHT31;56766;52.260;20.746;2023-03-01T12:40:43;9.08;61.98
69546;SHT31;56766;52.260;20.746;2023-03-01T12:49:44;9.17;62.41
69546;SHT31;56766;52.260;20.746;2023-03-01T12:52:52;9.22;61.79
69546;SHT31;56766;52.260;20.746;2023-03-01T12:55:42;9.05;61.04
69546;SHT31;56766;52.260;20.746;2023-03-01T13:02:18;8.76;61.97
69546;SHT31;56766;52.260;20.746;2023-03-01T13:11:15;8.68;62.62
69546;SHT31;56766;52.260;20.746;2023-03-01T13:13:38;8.68;62.93
69546;SHT31;56766;52.260;20.746;2023-03-01T13:19:18;8.66;63.08
69546;SHT31;56766;52.260;20.746;2023-03-01T13:21:49;8.57;62.12
69546;SHT31;56766;52.260;20.746;2023-03-01T13:24:27;8.37;62.21
69546;SHT31;56766;52.260;20.746;2023-03-01T13:29:53;8.16;62.88
69546;SHT31;56766;52.260;20.746;2023-03-01T13:32:36;8.07;63.31
69546;SHT31;56766;52.260;20.746;2023-03-01T13:37:41;7.99;64.38
69546;SHT31;56766;52.260;20.746;2023-03-01T13:42:56;7.75;64.04
69546;SHT31;56766;52.260;20.746;2023-03-01T13:45:37;7.64;64.31
69546;SHT31;56766;52.260;20.746;2023-03-01T13:48:23;7.52;64.74
69546;SHT31;56766;52.260;20.746;2023-03-01T13:51:02;7.41;64.99
69546;SHT31;56766;52.260;20.746;2023-03-01T13:53:41;7.40;65.10
69546;SHT31;56766;52.260;20.746;2023-03-01T13:56:18;7.46;65.28
69546;SHT31;56766;52.260;20.746;2023-03-01T14:01:36;7.66;66.10
69546;SHT31;56766;52.260;20.746;2023-03-01T14:04:22;7.76;65.79
69546;SHT31;56766;52.260;20.746;2023-03-01T14:07:20;7.72;64.66
69546;SHT31;56766;52.260;20.746;2023-03-01T14:09:54;7.59;64.46
69546;SHT31;56766;52.260;20.746;2023-03-01T14:12:52;7.57;64.73
69546;SHT31;56766;52.260;20.746;2023-03-01T14:15:42;7.65;64.59
69546;SHT31;56766;52.260;20.746;2023-03-01T14:18:30;7.75;64.55
69546;SHT31;56766;52.260;20.746;2023-03-01T14:21:09;7.83;64.51
69546;SHT31;56766;52.260;20.746;2023-03-01T14:23:40;7.87;64.44
69546;SHT31;56766;52.260;20.746;2023-03-01T14:26:09;7.85;64.23
69546;SHT31;56766;52.260;20.746;2023-03-01T14:28:42;7.79;64.44
69546;SHT31;56766;52.260;20.746;2023-03-01T14:31:32;7.72;64.71
69546;SHT31;56766;52.260;20.746;2023-03-01T14:34:03;7.59;64.85
69546;SHT31;56766;52.260;20.746;2023-03-01T14:36:33;7.47;65.00
69546;SHT31;56766;52.260;20.746;2023-03-01T14:39:01;7.38;65.32
69546;SHT31;56766;52.260;20.746;2023-03-01T14:41:43;7.26;65.70
69546;SHT31;56766;52.260;20.746;2023-03-01T14:44:22;7.17;65.90
69546;SHT31;56766;52.260;20.746;2023-03-01T14:46:55;7.06;66.10
69546;SHT31;56766;52.260;20.746;2023-03-01T14:49:27;6.95;66.41
69546;SHT31;56766;52.260;20.746;2023-03-01T14:52:03;6.86;66.75
69546;SHT31;56766;52.260;20.746;2023-03-01T14:54:44;6.77;66.90
69546;SHT31;56766;52.260;20.746;2023-03-01T14:57:25;6.67;67.20
69546;SHT31;56766;52.260;20.746;2023-03-01T14:59:55;6.58;67.33
69546;SHT31;56766;52.260;20.746;2023-03-01T15:02:28;6.51;67.53
69546;SHT31;56766;52.260;20.746;2023-03-01T15:05:01;6.45;67.79
69546;SHT31;56766;52.260;20.746;2023-03-01T15:07:37;6.45;67.86
69546;SHT31;56766;52.260;20.746;2023-03-01T15:10:19;6.43;67.96
69546;SHT31;56766;52.260;20.746;2023-03-01T15:12:49;6.43;68.37
69546;SHT31;56766;52.260;20.746;2023-03-01T15:18:01;6.38;68.66
69546;SHT31;56766;52.260;20.746;2023-03-01T15:20:33;6.34;68.83
69546;SHT31;56766;52.260;20.746;2023-03-01T15:23:03;6.32;68.95
69546;SHT31;56766;52.260;20.746;2023-03-01T15:25:32;6.31;69.21
69546;SHT31;56766;52.260;20.746;2023-03-01T15:28:01;6.30;69.37
69546;SHT31;56766;52.260;20.746;2023-03-01T15:30:33;6.29;69.40
69546;SHT31;56766;52.260;20.746;2023-03-01T15:33:29;6.25;69.44
69546;SHT31;56766;52.260;20.746;2023-03-01T15:36:01;6.21;69.60
69546;SHT31;56766;52.260;20.746;2023-03-01T15:38:55;6.16;69.63
69546;SHT31;56766;52.260;20.746;2023-03-01T15:41:28;6.13;69.66
69546;SHT31;56766;52.260;20.746;2023-03-01T15:44:17;6.10;69.85
69546;SHT31;56766;52.260;20.746;2023-03-01T15:46:52;6.09;70.02
69546;SHT31;56766;52.260;20.746;2023-03-01T15:49:37;6.08;70.11
69546;SHT31;56766;52.260;20.746;2023-03-01T15:52:18;6.03;70.23
69546;SHT31;56766;52.260;20.746;2023-03-01T15:54:57;5.95;70.33
69546;SHT31;56766;52.260;20.746;2023-03-01T15:57:26;5.89;70.40
69546;SHT31;56766;52.260;20.746;2023-03-01T15:59:53;5.82;70.51
69546;SHT31;56766;52.260;20.746;2023-03-01T16:02:21;5.79;70.66
69546;SHT31;56766;52.260;20.746;2023-03-01T16:04:54;5.74;70.76
69546;SHT31;56766;52.260;20.746;2023-03-01T16:07:22;5.70;70.89
69546;SHT31;56766;52.260;20.746;2023-03-01T16:09:49;5.70;70.97
69546;SHT31;56766;52.260;20.746;2023-03-01T16:12:16;5.69;71.06
69546;SHT31;56766;52.260;20.746;2023-03-01T16:14:43;5.66;71.15
69546;SHT31;56766;52.260;20.746;2023-03-01T16:17:10;5.61;71.28
69546;SHT31;56766;52.260;20.746;2023-03-01T16:19:37;5.58;71.43
69546;SHT31;56766;52.260;20.746;2023-03-01T16:22:04;5.52;71.59
69546;SHT31;56766;52.260;20.746;2023-03-01T16:24:31;5.50;71.70
69546;SHT31;56766;52.260;20.746;2023-03-01T16:26:58;5.47;71.73
69546;SHT31;56766;52.260;20.746;2023-03-01T16:29:25;5.42;71.83
69546;SHT31;56766;52.260;20.746;2023-03-01T16:31:52;5.39;71.82
69546;SHT31;56766;52.260;20.746;2023-03-01T16:34:19;5.32;71.91
69546;SHT31;56766;52.260;20.746;2023-03-01T16:36:48;5.27;71.99
69546;SHT31;56766;52.260;20.746;2023-03-01T16:39:15;5.17;72.12
69546;SHT31;56766;52.260;20.746;2023-03-01T16:41:43;5.10;72.26
69546;SHT31;56766;52.260;20.746;2023-03-01T16:44:10;5.04;72.39
69546;SHT31;56766;52.260;20.746;2023-03-01T16:46:37;5.00;72.52
69546;SHT31;56766;52.260;20.746;2023-03-01T16:49:03;4.95;72.54
69546;SHT31;56766;52.260;20.746;2023-03-01T16:51:30;4.91;72.60
69546;SHT31;56766;52.260;20.746;2023-03-01T16:54:01;4.81;72.63
69546;SHT31;56766;52.260;20.746;2023-03-01T16:56:28;4.70;72.74
69546;SHT31;56766;52.260;20.746;2023-03-01T16:58:56;4.59;72.90
69546;SHT31;56766;52.260;20.746;2023-03-01T17:01:23;4.46;73.17
69546;SHT31;56766;52.260;20.746;2023-03-01T17:03:51;4.37;73.38
69546;SHT31;56766;52.260;20.746;2023-03-01T17:06:20;4.29;73.54
69546;SHT31;56766;52.260;20.746;2023-03-01T17:08:48;4.20;73.68
69546;SHT31;56766;52.260;20.746;2023-03-01T17:11:17;4.14;73.77
69546;SHT31;56766;52.260;20.746;2023-03-01T17:13:46;4.04;73.82
69546;SHT31;56766;52.260;20.746;2023-03-01T17:16:16;3.93;74.04
69546;SHT31;56766;52.260;20.746;2023-03-01T17:18:46;3.85;74.20
69546;SHT31;56766;52.260;20.746;2023-03-01T17:21:14;3.76;74.45
69546;SHT31;56766;52.260;20.746;2023-03-01T17:23:44;3.70;74.74
69546;SHT31;56766;52.260;20.746;2023-03-01T17:26:12;3.64;74.77
69546;SHT31;56766;52.260;20.746;2023-03-01T17:28:39;3.54;74.66
69546;SHT31;56766;52.260;20.746;2023-03-01T17:31:07;3.40;74.99
69546;SHT31;56766;52.260;20.746;2023-03-01T17:33:35;3.28;75.12
69546;SHT31;56766;52.260;20.746;2023-03-01T17:36:02;3.17;75.26
69546;SHT31;56766;52.260;20.746;2023-03-01T17:38:29;3.06;75.66
69546;SHT31;56766;52.260;20.746;2023-03-01T17:40:59;2.99;76.02
69546;SHT31;56766;52.260;20.746;2023-03-01T17:43:26;2.96;76.19